sensor_id;sensor_type;location;lat;lon;timestamp;temperature;humidity
52895;DHT22;38759;53.396;6.722;2023-06-10T00:01:42;15.10;99.90
52895;DHT22;38759;53.396;6.722;2023-06-10T00:04:08;15.10;99.90
52895;DHT22;38759;53.396;6.722;2023-06-10T00:06:34;15.00;99.90
52895;DHT22;38759;53.396;6.722;2023-06-10T00:09:03;15.00;99.90
52895;DHT22;38759;53.396;6.722;2023-06-10T00:11:40;15.00;99.90
52895;DHT22;38759;53.396;6.722;2023-06-10T00:14:06;14.90;99.90
52895;DHT22;38759;53.396;6.722;2023-06-10T00:16:33;14.90;99.90
52895;DHT22;38759;53.396;6.722;2023-06-10T00:19:02;14.80;99.90
52895;DHT22;38759;53.396;6.722;2023-06-10T00:21:30;14.80;99.90
52895;DHT22;38759;53.396;6.722;2023-06-10T00:23:56;14.80;99.90
52895;DHT22;38759;53.396;6.722;2023-06-10T00:26:22;14.70;99.90
52895;DHT22;38759;53.396;6.722;2023-06-10T00:28:49;14.60;99.90
52895;DHT22;38759;53.396;6.722;2023-06-10T00:31:15;14.60;99.90
52895;DHT22;38759;53.396;6.722;2023-06-10T00:33:41;14.60;99.90
52895;DHT22;38759;53.396;6.722;2023-06-10T00:36:06;14.50;99.90
52895;DHT22;38759;53.396;6.722;2023-06-10T00:38:32;14.50;99.90
52895;DHT22;38759;53.396;6.722;2023-06-10T00:40:58;14.50;99.90
52895;DHT22;38759;53.396;6.722;2023-06-10T00:43:25;14.40;99.90
52895;DHT22;38759;53.396;6.722;2023-06-10T00:45:51;14.40;99.90
52895;DHT22;38759;53.396;6.722;2023-06-10T00:48:17;14.40;99.90
52895;DHT22;38759;53.396;6.722;2023-06-10T00:50:43;14.30;99.90
52895;DHT22;38759;53.396;6.722;2023-06-10T00:53:09;14.30;99.90
52895;DHT22;38759;53.396;6.722;2023-06-10T00:55:35;14.20;99.90
52895;DHT22;38759;53.396;6.722;2023-06-10T00:58:03;14.20;99.90
52895;DHT22;38759;53.396;6.722;2023-06-10T01:00:29;14.20;99.90
52895;DHT22;38759;53.396;6.722;2023-06-10T01:02:55;14.20;99.90
52895;DHT22;38759;53.396;6.722;2023-06-10T01:05:21;14.20;99.90
52895;DHT22;38759;53.396;6.722;2023-06-10T01:08:05;14.10;99.90
52895;DHT22;38759;53.396;6.722;2023-06-10T01:10:41;14.10;99.90
52895;DHT22;38759;53.396;6.722;2023-06-10T01:13:09;14.10;99.90
52895;DHT22;38759;53.396;6.722;2023-06-10T01:15:38;14.10;99.90
52895;DHT22;38759;53.396;6.722;2023-06-10T01:18:06;14.10;99.90
52895;DHT22;38759;53.396;6.722;2023-06-10T01:20:36;14.10;99.90
52895;DHT22;38759;53.396;6.722;2023-06-10T01:23:06;14.10;99.90
52895;DHT22;38759;53.396;6.722;2023-06-10T01:25:33;14.20;99.90
52895;DHT22;38759;53.396;6.722;2023-06-10T01:34:10;14.30;99.90
52895;DHT22;38759;53.396;6.722;2023-06-10T01:36:36;14.30;99.90
52895;DHT22;38759;53.396;6.722;2023-06-10T01:39:04;14.30;99.90
52895;DHT22;38759;53.396;6.722;2023-06-10T01:41:31;14.30;99.90
52895;DHT22;38759;53.396;6.722;2023-06-10T01:43:57;14.20;99.90
52895;DHT22;38759;53.396;6.722;2023-06-10T01:46:25;14.20;99.90
52895;DHT22;38759;53.396;6.722;2023-06-10T01:48:54;14.10;99.90
52895;DHT22;38759;53.396;6.722;2023-06-10T01:51:20;14.00;99.90
52895;DHT22;38759;53.396;6.722;2023-06-10T01:53:45;14.00;99.90
52895;DHT22;38759;53.396;6.722;2023-06-10T01:56:11;13.90;99.90
52895;DHT22;38759;53.396;6.722;2023-06-10T01:58:42;13.90;99.90
52895;DHT22;38759;53.396;6.722;2023-06-10T02:01:08;13.90;99.90
52895;DHT22;38759;53.396;6.722;2023-06-10T02:03:34;13.80;99.90
52895;DHT22;38759;53.396;6.722;2023-06-10T02:05:59;13.80;99.90
52895;DHT22;38759;53.396;6.722;2023-06-10T02:08:25;13.70;99.90
52895;DHT22;38759;53.396;6.722;2023-06-10T02:10:53;13.70;99.90
52895;DHT22;38759;53.396;6.722;2023-06-10T02:13:19;13.60;99.90
52895;DHT22;38759;53.396;6.722;2023-06-10T02:15:44;13.60;99.90
52895;DHT22;38759;53.396;6.722;2023-06-10T02:18:10;13.70;99.90
52895;DHT22;38759;53.396;6.722;2023-06-10T02:20:38;13.70;99.90
52895;DHT22;38759;53.396;6.722;2023-06-10T02:23:04;13.70;99.90
52895;DHT22;38759;53.396;6.722;2023-06-10T02:25:29;13.70;99.90
52895;DHT22;38759;53.396;6.722;2023-06-10T02:27:55;13.70;99.90
52895;DHT22;38759;53.396;6.722;2023-06-10T02:30:21;13.80;99.90
52895;DHT22;38759;53.396;6.722;2023-06-10T02:32:47;13.80;99.90
52895;DHT22;38759;53.396;6.722;2023-06-10T02:35:13;13.80;99.90
52895;DHT22;38759;53.396;6.722;2023-06-10T02:37:39;13.90;99.90
52895;DHT22;38759;53.396;6.722;2023-06-10T02:40:06;13.90;99.90
52895;DHT22;38759;53.396;6.722;2023-06-10T02:42:32;13.90;99.90
52895;DHT22;38759;53.396;6.722;2023-06-10T02:44:58;13.90;99.90
52895;DHT22;38759;53.396;6.722;2023-06-10T02:47:24;13.90;99.90
52895;DHT22;38759;53.396;6.722;2023-06-10T02:49:49;13.80;99.90
52895;DHT22;38759;53.396;6.722;2023-06-10T02:52:15;13.80;99.90
52895;DHT22;38759;53.396;6.722;2023-06-10T02:54:41;13.70;99.90
52895;DHT22;38759;53.396;6.722;2023-06-10T02:57:07;13.70;99.90
52895;DHT22;38759;53.396;6.722;2023-06-10T02:59:33;13.60;99.90
52895;DHT22;38759;53.396;6.722;2023-06-10T03:01:58;13.60;99.90
52895;DHT22;38759;53.396;6.722;2023-06-10T03:04:26;13.50;99.90
52895;DHT22;38759;53.396;6.722;2023-06-10T03:06:55;13.50;99.90
52895;DHT22;38759;53.396;6.722;2023-06-10T03:09:20;13.50;99.90
52895;DHT22;38759;53.396;6.722;2023-06-10T03:11:46;13.50;99.90
52895;DHT22;38759;53.396;6.722;2023-06-10T03:14:12;13.50;99.90
52895;DHT22;38759;53.396;6.722;2023-06-10T03:16:38;13.50;99.90
52895;DHT22;38759;53.396;6.722;2023-06-10T03:19:08;13.50;99.90
52895;DHT22;38759;53.396;6.722;2023-06-10T03:21:37;13.60;99.90
52895;DHT22;38759;53.396;6.722;2023-06-10T03:24:03;13.50;99.90
52895;DHT22;38759;53.396;6.722;2023-06-10T03:26:29;13.60;99.90
52895;DHT22;38759;53.396;6.722;2023-06-10T03:28:55;13.60;99.90
52895;DHT22;38759;53.396;6.722;2023-06-10T03:31:20;13.70;99.90
52895;DHT22;38759;53.396;6.722;2023-06-10T03:33:46;13.70;99.90
52895;DHT22;38759;53.396;6.722;2023-06-10T03:36:12;13.70;99.90
52895;DHT22;38759;53.396;6.722;2023-06-10T03:38:38;13.80;99.90
52895;DHT22;38759;53.396;6.722;2023-06-10T03:41:03;13.70;99.90
52895;DHT22;38759;53.396;6.722;2023-06-10T03:43:29;13.80;99.90
52895;DHT22;38759;53.396;6.722;2023-06-10T03:45:56;13.80;99.90
52895;DHT22;38759;53.396;6.722;2023-06-10T03:48:22;13.80;99.90
52895;DHT22;38759;53.396;6.722;2023-06-10T03:50:48;13.80;99.90
52895;DHT22;38759;53.396;6.722;2023-06-10T03:53:16;13.80;99.90
52895;DHT22;38759;53.396;6.722;2023-06-10T03:55:42;13.80;99.90
52895;DHT22;38759;53.396;6.722;2023-06-10T03:58:08;13.80;99.90
52895;DHT22;38759;53.396;6.722;2023-06-10T04:00:33;13.80;99.90
52895;DHT22;38759;53.396;6.722;2023-06-10T04:03:08;13.80;99.90
52895;DHT22;38759;53.396;6.722;2023-06-10T04:05:34;13.80;99.90
52895;DHT22;38759;53.396;6.722;2023-06-10T04:08:00;13.70;99.90
52895;DHT22;38759;53.396;6.722;2023-06-10T04:10:27;13.70;99.90
52895;DHT22;38759;53.396;6.722;2023-06-10T04:12:53;13.70;99.90
52895;DHT22;38759;53.396;6.722;2023-06-10T04:15:19;13.70;99.90
52895;DHT22;38759;53.396;6.722;2023-06-10T04:17:45;13.70;99.90
52895;DHT22;38759;53.396;6.722;2023-06-10T04:20:11;13.70;99.90
52895;DHT22;38759;53.396;6.722;2023-06-10T04:22:36;13.70;99.90
52895;DHT22;38759;53.396;6.722;2023-06-10T04:25:02;13.80;99.90
52895;DHT22;38759;53.396;6.722;2023-06-10T04:27:29;13.80;99.90
52895;DHT22;38759;53.396;6.722;2023-06-10T04:29:54;13.80;99.90
52895;DHT22;38759;53.396;6.722;2023-06-10T04:32:20;13.90;99.90
52895;DHT22;38759;53.396;6.722;2023-06-10T04:34:47;13.90;99.90
52895;DHT22;38759;53.396;6.722;2023-06-10T04:37:12;13.90;99.90
52895;DHT22;38759;53.396;6.722;2023-06-10T04:39:38;14.00;99.90
52895;DHT22;38759;53.396;6.722;2023-06-10T04:42:04;14.00;99.90
52895;DHT22;38759;53.396;6.722;2023-06-10T04:44:31;14.00;99.90
52895;DHT22;38759;53.396;6.722;2023-06-10T04:46:56;14.10;99.90
52895;DHT22;38759;53.396;6.722;2023-06-10T04:49:22;14.10;99.90
52895;DHT22;38759;53.396;6.722;2023-06-10T04:51:48;14.10;99.90
52895;DHT22;38759;53.396;6.722;2023-06-10T04:54:13;14.10;99.90
52895;DHT22;38759;53.396;6.722;2023-06-10T04:56:39;14.10;99.90
52895;DHT22;38759;53.396;6.722;2023-06-10T04:59:05;14.20;99.90
52895;DHT22;38759;53.396;6.722;2023-06-10T05:01:30;14.20;99.90
52895;DHT22;38759;53.396;6.722;2023-06-10T05:03:56;14.20;99.90
52895;DHT22;38759;53.396;6.722;2023-06-10T05:06:22;14.20;99.90
52895;DHT22;38759;53.396;6.722;2023-06-10T05:08:48;14.30;99.90
52895;DHT22;38759;53.396;6.722;2023-06-10T05:11:13;14.30;99.90
52895;DHT22;38759;53.396;6.722;2023-06-10T05:13:41;14.30;99.90
52895;DHT22;38759;53.396;6.722;2023-06-10T05:16:06;14.30;99.90
52895;DHT22;38759;53.396;6.722;2023-06-10T05:18:33;14.30;99.90
52895;DHT22;38759;53.396;6.722;2023-06-10T05:20:59;14.40;99.90
52895;DHT22;38759;53.396;6.722;2023-06-10T05:23:24;14.30;99.90
52895;DHT22;38759;53.396;6.722;2023-06-10T05:25:50;14.40;99.90
52895;DHT22;38759;53.396;6.722;2023-06-10T05:28:16;14.40;99.90
52895;DHT22;38759;53.396;6.722;2023-06-10T05:30:41;14.40;99.90
52895;DHT22;38759;53.396;6.722;2023-06-10T05:33:07;14.50;99.90
52895;DHT22;38759;53.396;6.722;2023-06-10T05:35:36;14.50;99.90
52895;DHT22;38759;53.396;6.722;2023-06-10T05:38:02;14.50;99.90
52895;DHT22;38759;53.396;6.722;2023-06-10T05:40:28;14.50;99.90
52895;DHT22;38759;53.396;6.722;2023-06-10T05:42:53;14.50;99.90
52895;DHT22;38759;53.396;6.722;2023-06-10T05:45:19;14.50;99.90
52895;DHT22;38759;53.396;6.722;2023-06-10T05:47:45;14.60;99.90
52895;DHT22;38759;53.396;6.722;2023-06-10T05:50:10;14.60;99.90
52895;DHT22;38759;53.396;6.722;2023-06-10T05:52:36;14.60;99.90
52895;DHT22;38759;53.396;6.722;2023-06-10T05:55:03;14.70;99.90
52895;DHT22;38759;53.396;6.722;2023-06-10T05:57:29;14.70;99.90
52895;DHT22;38759;53.396;6.722;2023-06-10T05:59:55;14.70;99.90
52895;DHT22;38759;53.396;6.722;2023-06-10T06:02:20;14.90;99.90
52895;DHT22;38759;53.396;6.722;2023-06-10T06:04:46;14.90;99.90
52895;DHT22;38759;53.396;6.722;2023-06-10T06:07:12;15.00;99.90
52895;DHT22;38759;53.396;6.722;2023-06-10T06:09:37;15.10;99.90
52895;DHT22;38759;53.396;6.722;2023-06-10T06:12:03;15.20;99.90
52895;DHT22;38759;53.396;6.722;2023-06-10T06:14:31;15.30;99.90
52895;DHT22;38759;53.396;6.722;2023-06-10T06:16:57;15.40;99.90
52895;DHT22;38759;53.396;6.722;2023-06-10T06:19:23;15.50;99.90
52895;DHT22;38759;53.396;6.722;2023-06-10T06:21:49;15.60;99.90
52895;DHT22;38759;53.396;6.722;2023-06-10T06:24:15;15.70;99.90
52895;DHT22;38759;53.396;6.722;2023-06-10T06:26:41;15.80;99.90
52895;DHT22;38759;53.396;6.722;2023-06-10T06:29:07;15.80;99.90
52895;DHT22;38759;53.396;6.722;2023-06-10T06:31:33;15.90;99.90
52895;DHT22;38759;53.396;6.722;2023-06-10T06:33:59;16.00;99.90
52895;DHT22;38759;53.396;6.722;2023-06-10T06:36:24;16.10;99.90
52895;DHT22;38759;53.396;6.722;2023-06-10T06:38:50;16.20;99.90
52895;DHT22;38759;53.396;6.722;2023-06-10T06:41:16;16.30;99.90
52895;DHT22;38759;53.396;6.722;2023-06-10T06:43:41;16.40;99.90
52895;DHT22;38759;53.396;6.722;2023-06-10T06:46:08;16.40;99.90
52895;DHT22;38759;53.396;6.722;2023-06-10T06:48:34;16.50;99.90
52895;DHT22;38759;53.396;6.722;2023-06-10T06:51:00;16.60;99.90
52895;DHT22;38759;53.396;6.722;2023-06-10T06:53:25;16.70;99.90
52895;DHT22;38759;53.396;6.722;2023-06-10T06:55:51;16.80;99.90
52895;DHT22;38759;53.396;6.722;2023-06-10T06:58:17;16.90;99.90
52895;DHT22;38759;53.396;6.722;2023-06-10T07:00:42;16.90;99.90
52895;DHT22;38759;53.396;6.722;2023-06-10T07:03:08;17.00;99.90
52895;DHT22;38759;53.396;6.722;2023-06-10T07:05:34;17.10;99.90
52895;DHT22;38759;53.396;6.722;2023-06-10T07:08:00;17.20;99.90
52895;DHT22;38759;53.396;6.722;2023-06-10T07:10:26;17.30;99.90
52895;DHT22;38759;53.396;6.722;2023-06-10T07:12:52;17.40;99.90
52895;DHT22;38759;53.396;6.722;2023-06-10T07:15:21;17.50;99.90
52895;DHT22;38759;53.396;6.722;2023-06-10T07:17:47;17.50;99.90
52895;DHT22;38759;53.396;6.722;2023-06-10T07:20:13;17.60;99.90
52895;DHT22;38759;53.396;6.722;2023-06-10T07:22:41;17.70;99.90
52895;DHT22;38759;53.396;6.722;2023-06-10T07:25:06;17.80;99.90
52895;DHT22;38759;53.396;6.722;2023-06-10T07:27:32;17.90;99.90
52895;DHT22;38759;53.396;6.722;2023-06-10T07:29:58;18.00;99.90
52895;DHT22;38759;53.396;6.722;2023-06-10T07:32:26;18.10;99.90
52895;DHT22;38759;53.396;6.722;2023-06-10T07:34:51;18.20;99.90
52895;DHT22;38759;53.396;6.722;2023-06-10T07:37:18;18.30;99.90
52895;DHT22;38759;53.396;6.722;2023-06-10T07:39:45;18.50;99.90
52895;DHT22;38759;53.396;6.722;2023-06-10T07:42:10;18.50;99.90
52895;DHT22;38759;53.396;6.722;2023-06-10T07:44:36;18.70;99.90
52895;DHT22;38759;53.396;6.722;2023-06-10T07:47:02;18.80;99.90
52895;DHT22;38759;53.396;6.722;2023-06-10T07:49:28;18.90;99.90
52895;DHT22;38759;53.396;6.722;2023-06-10T07:51:56;18.90;99.90
52895;DHT22;38759;53.396;6.722;2023-06-10T07:54:22;19.00;99.90
52895;DHT22;38759;53.396;6.722;2023-06-10T07:56:48;19.10;99.90
52895;DHT22;38759;53.396;6.722;2023-06-10T07:59:14;19.20;99.90
52895;DHT22;38759;53.396;6.722;2023-06-10T08:01:40;19.40;99.90
52895;DHT22;38759;53.396;6.722;2023-06-10T08:04:06;19.50;99.90
52895;DHT22;38759;53.396;6.722;2023-06-10T08:06:32;19.60;99.90
52895;DHT22;38759;53.396;6.722;2023-06-10T08:08:58;19.70;99.90
52895;DHT22;38759;53.396;6.722;2023-06-10T08:11:23;19.90;99.90
52895;DHT22;38759;53.396;6.722;2023-06-10T08:13:49;19.90;99.90
52895;DHT22;38759;53.396;6.722;2023-06-10T08:16:15;20.10;99.90
52895;DHT22;38759;53.396;6.722;2023-06-10T08:18:41;20.20;99.90
52895;DHT22;38759;53.396;6.722;2023-06-10T08:21:06;20.30;99.90
52895;DHT22;38759;53.396;6.722;2023-06-10T08:23:32;20.40;99.90
52895;DHT22;38759;53.396;6.722;2023-06-10T08:25:58;20.60;99.90
52895;DHT22;38759;53.396;6.722;2023-06-10T08:28:23;20.70;99.90
52895;DHT22;38759;53.396;6.722;2023-06-10T08:30:49;20.80;99.90
52895;DHT22;38759;53.396;6.722;2023-06-10T08:33:18;20.90;99.90
52895;DHT22;38759;53.396;6.722;2023-06-10T08:35:44;21.00;99.90
52895;DHT22;38759;53.396;6.722;2023-06-10T08:38:10;21.10;99.90
52895;DHT22;38759;53.396;6.722;2023-06-10T08:40:35;21.20;99.90
52895;DHT22;38759;53.396;6.722;2023-06-10T08:43:10;21.30;99.90
52895;DHT22;38759;53.396;6.722;2023-06-10T08:45:42;21.40;99.90
52895;DHT22;38759;53.396;6.722;2023-06-10T08:48:10;21.50;99.90
52895;DHT22;38759;53.396;6.722;2023-06-10T08:50:38;21.60;99.90
52895;DHT22;38759;53.396;6.722;2023-06-10T08:53:06;21.70;99.90
52895;DHT22;38759;53.396;6.722;2023-06-10T08:55:33;21.80;99.90
52895;DHT22;38759;53.396;6.722;2023-06-10T08:58:01;21.90;99.90
52895;DHT22;38759;53.396;6.722;2023-06-10T09:00:28;21.90;99.90
52895;DHT22;38759;53.396;6.722;2023-06-10T09:02:56;22.00;99.90
52895;DHT22;38759;53.396;6.722;2023-06-10T09:05:22;22.10;99.90
52895;DHT22;38759;53.396;6.722;2023-06-10T09:07:48;22.20;99.90
52895;DHT22;38759;53.396;6.722;2023-06-10T09:10:15;22.20;99.90
52895;DHT22;38759;53.396;6.722;2023-06-10T09:12:40;22.40;99.90
52895;DHT22;38759;53.396;6.722;2023-06-10T09:15:07;22.50;99.90
52895;DHT22;38759;53.396;6.722;2023-06-10T09:17:33;22.50;99.90
52895;DHT22;38759;53.396;6.722;2023-06-10T09:20:01;22.60;99.90
52895;DHT22;38759;53.396;6.722;2023-06-10T09:22:28;22.70;99.90
52895;DHT22;38759;53.396;6.722;2023-06-10T09:25:14;22.80;99.90
52895;DHT22;38759;53.396;6.722;2023-06-10T09:27:48;22.80;99.90
52895;DHT22;38759;53.396;6.722;2023-06-10T09:30:32;23.00;99.90
52895;DHT22;38759;53.396;6.722;2023-06-10T09:33:00;23.10;99.90
52895;DHT22;38759;53.396;6.722;2023-06-10T09:35:29;23.20;99.90
52895;DHT22;38759;53.396;6.722;2023-06-10T09:37:56;23.40;99.90
52895;DHT22;38759;53.396;6.722;2023-06-10T09:40:23;23.40;99.90
52895;DHT22;38759;53.396;6.722;2023-06-10T09:42:56;23.50;99.90
52895;DHT22;38759;53.396;6.722;2023-06-10T09:45:23;23.60;99.90
52895;DHT22;38759;53.396;6.722;2023-06-10T09:47:55;23.70;99.90
52895;DHT22;38759;53.396;6.722;2023-06-10T09:50:21;23.80;99.90
52895;DHT22;38759;53.396;6.722;2023-06-10T09:52:47;24.00;99.90
52895;DHT22;38759;53.396;6.722;2023-06-10T09:55:14;24.10;99.90
52895;DHT22;38759;53.396;6.722;2023-06-10T09:57:39;24.20;99.90
52895;DHT22;38759;53.396;6.722;2023-06-10T10:00:09;24.30;99.90
52895;DHT22;38759;53.396;6.722;2023-06-10T10:02:49;24.40;99.90
52895;DHT22;38759;53.396;6.722;2023-06-10T10:05:17;24.50;99.90
52895;DHT22;38759;53.396;6.722;2023-06-10T10:07:43;24.60;99.90
52895;DHT22;38759;53.396;6.722;2023-06-10T10:10:10;24.70;99.90
52895;DHT22;38759;53.396;6.722;2023-06-10T10:12:40;24.80;99.90
52895;DHT22;38759;53.396;6.722;2023-06-10T10:15:07;24.90;99.90
52895;DHT22;38759;53.396;6.722;2023-06-10T10:17:44;25.00;99.90
52895;DHT22;38759;53.396;6.722;2023-06-10T10:20:14;25.10;99.90
52895;DHT22;38759;53.396;6.722;2023-06-10T10:22:43;25.20;99.90
52895;DHT22;38759;53.396;6.722;2023-06-10T10:25:15;25.30;99.90
52895;DHT22;38759;53.396;6.722;2023-06-10T10:27:48;25.40;99.90
52895;DHT22;38759;53.396;6.722;2023-06-10T10:30:14;25.50;99.90
52895;DHT22;38759;53.396;6.722;2023-06-10T10:32:56;25.60;99.90
52895;DHT22;38759;53.396;6.722;2023-06-10T10:35:23;25.60;99.90
52895;DHT22;38759;53.396;6.722;2023-06-10T10:37:53;25.70;99.90
52895;DHT22;38759;53.396;6.722;2023-06-10T10:40:21;25.80;99.90
52895;DHT22;38759;53.396;6.722;2023-06-10T10:42:49;25.90;99.90
52895;DHT22;38759;53.396;6.722;2023-06-10T10:45:15;26.00;99.90
52895;DHT22;38759;53.396;6.722;2023-06-10T10:47:42;26.10;99.90
52895;DHT22;38759;53.396;6.722;2023-06-10T10:50:19;26.10;99.90
52895;DHT22;38759;53.396;6.722;2023-06-10T10:52:56;26.20;99.90
52895;DHT22;38759;53.396;6.722;2023-06-10T10:55:26;26.30;99.90
52895;DHT22;38759;53.396;6.722;2023-06-10T10:58:02;26.30;99.90
52895;DHT22;38759;53.396;6.722;2023-06-10T11:00:36;26.30;99.90
52895;DHT22;38759;53.396;6.722;2023-06-10T11:05:36;26.40;99.90
52895;DHT22;38759;53.396;6.722;2023-06-10T11:08:03;26.50;99.90
52895;DHT22;38759;53.396;6.722;2023-06-10T11:10:36;26.60;99.90
52895;DHT22;38759;53.396;6.722;2023-06-10T11:13:09;26.70;99.90
52895;DHT22;38759;53.396;6.722;2023-06-10T11:15:39;26.70;99.90
52895;DHT22;38759;53.396;6.722;2023-06-10T11:31:23;27.20;99.90
52895;DHT22;38759;53.396;6.722;2023-06-10T11:33:59;27.20;99.90
52895;DHT22;38759;53.396;6.722;2023-06-10T11:36:26;27.20;99.90
52895;DHT22;38759;53.396;6.722;2023-06-10T11:38:57;27.20;99.90
52895;DHT22;38759;53.396;6.722;2023-06-10T11:41:28;27.30;99.90
52895;DHT22;38759;53.396;6.722;2023-06-10T11:43:55;27.30;99.90
52895;DHT22;38759;53.396;6.722;2023-06-10T11:46:24;27.40;99.90
52895;DHT22;38759;53.396;6.722;2023-06-10T11:48:57;27.30;99.90
52895;DHT22;38759;53.396;6.722;2023-06-10T11:51:26;27.40;99.90
52895;DHT22;38759;53.396;6.722;2023-06-10T11:53:52;27.40;99.90
52895;DHT22;38759;53.396;6.722;2023-06-10T11:56:22;27.40;99.90
52895;DHT22;38759;53.396;6.722;2023-06-10T11:59:00;27.40;99.90
52895;DHT22;38759;53.396;6.722;2023-06-10T12:01:43;27.40;99.90
52895;DHT22;38759;53.396;6.722;2023-06-10T12:06:46;27.50;99.90
52895;DHT22;38759;53.396;6.722;2023-06-10T12:09:21;27.60;99.90
52895;DHT22;38759;53.396;6.722;2023-06-10T12:14:55;27.30;99.90
52895;DHT22;38759;53.396;6.722;2023-06-10T12:19:58;27.20;99.90
52895;DHT22;38759;53.396;6.722;2023-06-10T12:22:25;27.10;99.90
52895;DHT22;38759;53.396;6.722;2023-06-10T12:24:58;27.00;99.90
52895;DHT22;38759;53.396;6.722;2023-06-10T12:27:28;27.00;99.90
52895;DHT22;38759;53.396;6.722;2023-06-10T12:29:56;27.10;99.90
52895;DHT22;38759;53.396;6.722;2023-06-10T12:32:36;27.20;99.90
52895;DHT22;38759;53.396;6.722;2023-06-10T12:35:05;27.20;99.90
52895;DHT22;38759;53.396;6.722;2023-06-10T12:37:32;27.30;99.90
52895;DHT22;38759;53.396;6.722;2023-06-10T12:40:01;27.30;99.90
52895;DHT22;38759;53.396;6.722;2023-06-10T12:42:32;27.30;99.90
52895;DHT22;38759;53.396;6.722;2023-06-10T12:45:00;27.30;99.90
52895;DHT22;38759;53.396;6.722;2023-06-10T12:47:33;27.40;99.90
52895;DHT22;38759;53.396;6.722;2023-06-10T12:50:05;27.40;99.90
52895;DHT22;38759;53.396;6.722;2023-06-10T12:52:31;27.50;99.90
52895;DHT22;38759;53.396;6.722;2023-06-10T12:54:58;27.50;99.90
52895;DHT22;38759;53.396;6.722;2023-06-10T12:57:24;27.50;99.90
52895;DHT22;38759;53.396;6.722;2023-06-10T12:59:50;27.60;99.90
52895;DHT22;38759;53.396;6.722;2023-06-10T13:02:21;27.70;99.90
52895;DHT22;38759;53.396;6.722;2023-06-10T13:04:52;27.80;99.90
52895;DHT22;38759;53.396;6.722;2023-06-10T13:07:17;27.80;99.90
52895;DHT22;38759;53.396;6.722;2023-06-10T13:09:44;27.80;99.90
52895;DHT22;38759;53.396;6.722;2023-06-10T13:12:10;27.80;99.90
52895;DHT22;38759;53.396;6.722;2023-06-10T13:14:37;27.80;99.90
52895;DHT22;38759;53.396;6.722;2023-06-10T13:17:04;27.80;99.90
52895;DHT22;38759;53.396;6.722;2023-06-10T13:19:32;27.80;99.90
52895;DHT22;38759;53.396;6.722;2023-06-10T13:21:58;27.90;99.90
52895;DHT22;38759;53.396;6.722;2023-06-10T13:24:24;27.90;99.90
52895;DHT22;38759;53.396;6.722;2023-06-10T13:26:50;27.80;99.90
52895;DHT22;38759;53.396;6.722;2023-06-10T13:29:16;27.80;99.90
52895;DHT22;38759;53.396;6.722;2023-06-10T13:31:41;27.70;99.90
52895;DHT22;38759;53.396;6.722;2023-06-10T13:34:08;27.70;99.90
52895;DHT22;38759;53.396;6.722;2023-06-10T13:36:33;27.70;99.90
52895;DHT22;38759;53.396;6.722;2023-06-10T13:38:59;27.70;99.90
52895;DHT22;38759;53.396;6.722;2023-06-10T13:41:25;27.80;99.90
52895;DHT22;38759;53.396;6.722;2023-06-10T13:43:53;27.70;99.90
52895;DHT22;38759;53.396;6.722;2023-06-10T13:46:18;27.70;99.90
52895;DHT22;38759;53.396;6.722;2023-06-10T13:48:47;27.70;99.90
52895;DHT22;38759;53.396;6.722;2023-06-10T13:51:12;27.70;99.90
52895;DHT22;38759;53.396;6.722;2023-06-10T13:53:38;27.70;99.90
52895;DHT22;38759;53.396;6.722;2023-06-10T13:56:04;27.70;99.90
52895;DHT22;38759;53.396;6.722;2023-06-10T13:58:29;27.80;99.90
52895;DHT22;38759;53.396;6.722;2023-06-10T14:00:55;27.80;99.90
52895;DHT22;38759;53.396;6.722;2023-06-10T14:03:24;27.90;99.90
52895;DHT22;38759;53.396;6.722;2023-06-10T14:05:50;28.00;99.90
52895;DHT22;38759;53.396;6.722;2023-06-10T14:08:15;28.00;99.90
52895;DHT22;38759;53.396;6.722;2023-06-10T14:10:41;27.90;99.90
52895;DHT22;38759;53.396;6.722;2023-06-10T14:13:07;27.80;99.90
52895;DHT22;38759;53.396;6.722;2023-06-10T14:15:32;27.70;99.90
52895;DHT22;38759;53.396;6.722;2023-06-10T14:17:58;27.80;99.90
52895;DHT22;38759;53.396;6.722;2023-06-10T14:20:24;27.90;99.90
52895;DHT22;38759;53.396;6.722;2023-06-10T14:22:52;27.90;99.90
52895;DHT22;38759;53.396;6.722;2023-06-10T14:25:17;28.00;99.90
52895;DHT22;38759;53.396;6.722;2023-06-10T14:27:43;28.00;99.90
52895;DHT22;38759;53.396;6.722;2023-06-10T14:30:09;28.00;99.90
52895;DHT22;38759;53.396;6.722;2023-06-10T14:32:35;28.00;99.90
52895;DHT22;38759;53.396;6.722;2023-06-10T14:35:01;28.00;99.90
52895;DHT22;38759;53.396;6.722;2023-06-10T14:37:26;28.00;99.90
52895;DHT22;38759;53.396;6.722;2023-06-10T14:39:52;28.10;99.90
52895;DHT22;38759;53.396;6.722;2023-06-10T14:42:18;28.10;99.90
52895;DHT22;38759;53.396;6.722;2023-06-10T14:44:43;28.10;99.90
52895;DHT22;38759;53.396;6.722;2023-06-10T14:47:09;28.00;99.90
52895;DHT22;38759;53.396;6.722;2023-06-10T14:49:35;28.10;99.90
52895;DHT22;38759;53.396;6.722;2023-06-10T14:52:01;28.10;99.90
52895;DHT22;38759;53.396;6.722;2023-06-10T14:54:26;28.10;99.90
52895;DHT22;38759;53.396;6.722;2023-06-10T14:56:52;28.10;99.90
52895;DHT22;38759;53.396;6.722;2023-06-10T14:59:18;28.10;99.90
52895;DHT22;38759;53.396;6.722;2023-06-10T15:01:43;28.20;99.90
52895;DHT22;38759;53.396;6.722;2023-06-10T15:04:09;28.20;99.90
52895;DHT22;38759;53.396;6.722;2023-06-10T15:06:35;28.20;99.90
52895;DHT22;38759;53.396;6.722;2023-06-10T15:09:00;28.10;99.90
52895;DHT22;38759;53.396;6.722;2023-06-10T15:11:26;28.00;99.90
52895;DHT22;38759;53.396;6.722;2023-06-10T15:13:52;27.90;99.90
52895;DHT22;38759;53.396;6.722;2023-06-10T15:16:17;27.80;99.90
52895;DHT22;38759;53.396;6.722;2023-06-10T15:18:43;27.60;99.90
52895;DHT22;38759;53.396;6.722;2023-06-10T15:21:08;27.60;99.90
52895;DHT22;38759;53.396;6.722;2023-06-10T15:23:34;27.50;99.90
52895;DHT22;38759;53.396;6.722;2023-06-10T15:26:00;27.40;99.90
52895;DHT22;38759;53.396;6.722;2023-06-10T15:28:26;27.30;99.90
52895;DHT22;38759;53.396;6.722;2023-06-10T15:30:51;27.20;99.90
52895;DHT22;38759;53.396;6.722;2023-06-10T15:33:17;27.10;99.90
52895;DHT22;38759;53.396;6.722;2023-06-10T15:35:43;27.10;99.90
52895;DHT22;38759;53.396;6.722;2023-06-10T15:38:08;27.00;99.90
52895;DHT22;38759;53.396;6.722;2023-06-10T15:40:34;27.00;99.90
52895;DHT22;38759;53.396;6.722;2023-06-10T15:43:00;26.90;99.90
52895;DHT22;38759;53.396;6.722;2023-06-10T15:45:26;26.90;99.90
52895;DHT22;38759;53.396;6.722;2023-06-10T15:47:52;26.70;99.90
52895;DHT22;38759;53.396;6.722;2023-06-10T15:50:17;26.60;99.90
52895;DHT22;38759;53.396;6.722;2023-06-10T15:52:43;26.60;99.90
52895;DHT22;38759;53.396;6.722;2023-06-10T15:55:09;26.50;99.90
52895;DHT22;38759;53.396;6.722;2023-06-10T15:57:34;26.50;99.90
52895;DHT22;38759;53.396;6.722;2023-06-10T16:00:00;26.50;99.90